Terminal Aerodrome Forecast
Issued by NWS

Home | Current Version | Previous Version | Text Only | Print | Product List | Glossary On
Versions: 1 2 3 4 5 6 7 8 9 10 11 12 13 14 15 16 17 18 19 20 21 22 23 24 25 26 27 28 29 30
000
FTUS41 KCTP 261804 RRA
TAFBFD
TAF
KBFD 261804Z 2618/2718 29010G18KT P6SM VCSH SCT015 OVC025
      TEMPO 2618/2621 BKN015
     FM270000 26005KT P6SM OVC025
     FM270600 14003KT P6SM OVC015=

USA.gov is the U.S. government's official web portal to all federal, state and local government web resources and services.